Time;durP1;ratioP1;P1;durP2;ratioP2;P2;SDS_P1;SDS_P2;PMS_P1;PMS_P2;Temp;Humidity;BMP_temperature;BMP_pressure;BME280_temperature;BME280_humidity;BME280_pressure;Samples;Min_cycle;Max_cycle;Signal;HPM_P1;HPM_P2
2024/04/09 00:01:25;;;;;;;1.23;1.13;;;22.00;63.90;;;;;;5298004;26;20019;-50
2024/04/09 00:03:50;;;;;;;1.95;1.67;;;22.00;63.90;;;;;;5306379;26;19997;-54
2024/04/09 00:06:19;;;;;;;1.98;1.40;;;22.00;63.90;;;;;;5301287;26;20324;-56
2024/04/09 00:08:44;;;;;;;1.58;1.38;;;22.00;63.90;;;;;;5301072;26;19998;-50
2024/04/09 00:11:21;;;;;;;1.80;1.27;;;22.00;63.90;;;;;;5310433;26;20000;-51
2024/04/09 00:13:57;;;;;;;2.55;1.83;;;22.00;63.90;;;;;;5262927;26;20040;-52
2024/04/09 00:16:24;;;;;;;2.17;1.40;;;22.00;63.90;;;;;;5261683;26;20079;-50
2024/04/09 00:18:53;;;;;;;2.15;1.35;;;22.00;63.90;;;;;;5305777;26;20021;-51
2024/04/09 00:21:22;;;;;;;2.30;1.55;;;22.00;63.90;;;;;;5301124;26;20053;-52
2024/04/09 00:23:48;;;;;;;1.67;1.48;;;21.90;63.90;;;;;;5295671;26;20465;-51
2024/04/09 00:26:14;;;;;;;2.65;1.75;;;22.00;63.90;;;;;;5296668;26;20052;-51
2024/04/09 00:28:39;;;;;;;2.25;1.83;;;22.00;63.90;;;;;;5302730;26;20013;-54
2024/04/09 00:31:05;;;;;;;2.13;1.75;;;22.00;63.90;;;;;;5275248;26;20831;-54
2024/04/09 00:33:31;;;;;;;2.20;1.38;;;22.00;63.90;;;;;;5297405;26;20022;-51
2024/04/09 00:35:56;;;;;;;1.50;1.30;;;22.00;63.90;;;;;;5294847;26;20370;-50
2024/04/09 00:38:23;;;;;;;2.10;1.50;;;22.00;63.90;;;;;;5303256;26;20079;-50
2024/04/09 00:40:49;;;;;;;2.00;1.40;;;22.00;63.90;;;;;;5303789;26;19998;-52
2024/04/09 00:43:15;;;;;;;2.78;1.58;;;22.00;63.90;;;;;;5295388;26;20030;-50
2024/04/09 00:45:43;;;;;;;1.80;1.63;;;22.00;63.90;;;;;;5304908;26;20081;-54
2024/04/09 00:48:11;;;;;;;1.88;1.67;;;21.90;63.90;;;;;;5295061;26;20064;-48
2024/04/09 00:50:41;;;;;;;2.83;1.50;;;21.90;63.90;;;;;;5309035;26;20451;-50
2024/04/09 00:53:10;;;;;;;2.03;1.42;;;22.00;63.90;;;;;;5296268;26;20051;-52
2024/04/09 00:55:40;;;;;;;2.38;1.33;;;21.90;63.90;;;;;;5271617;26;20015;-51
2024/04/09 00:58:11;;;;;;;2.40;1.55;;;21.90;63.90;;;;;;5286964;26;20725;-50
2024/04/09 01:00:40;;;;;;;1.98;1.80;;;21.90;63.90;;;;;;5265125;26;20013;-49
2024/04/09 01:03:06;;;;;;;2.10;1.48;;;21.90;63.90;;;;;;5297727;26;20435;-52
2024/04/09 01:05:32;;;;;;;1.67;1.50;;;22.00;64.00;;;;;;5297770;26;20002;-51
2024/04/09 01:07:57;;;;;;;2.70;1.63;;;21.90;63.90;;;;;;5304807;26;20531;-54
2024/04/09 01:10:23;;;;;;;1.83;1.50;;;21.90;63.90;;;;;;5302059;26;20128;-51
2024/04/09 01:12:49;;;;;;;1.50;1.30;;;22.00;64.00;;;;;;5268011;26;20076;-50
2024/04/09 01:15:14;;;;;;;2.63;1.60;;;22.00;64.00;;;;;;5286136;26;20037;-51
2024/04/09 01:17:40;;;;;;;1.90;1.42;;;21.90;64.00;;;;;;5270080;26;20009;-58
2024/04/09 01:20:07;;;;;;;2.08;1.67;;;22.00;64.00;;;;;;5306107;26;20439;-53
2024/04/09 01:22:33;;;;;;;2.15;1.58;;;22.00;64.00;;;;;;5295643;26;20475;-53
2024/04/09 01:24:58;;;;;;;1.80;1.52;;;21.90;63.90;;;;;;5303043;26;20014;-53
2024/04/09 01:27:25;;;;;;;1.85;1.58;;;21.90;63.90;;;;;;5316171;26;20016;-48
2024/04/09 01:29:50;;;;;;;3.22;1.92;;;22.00;64.00;;;;;;5300747;26;20013;-53
2024/04/09 01:32:17;;;;;;;1.25;1.15;;;21.90;64.00;;;;;;5305966;26;20430;-52
2024/04/09 01:34:44;;;;;;;2.10;1.77;;;21.90;64.00;;;;;;5311964;26;20010;-49
2024/04/09 01:37:11;;;;;;;2.75;1.58;;;21.90;64.00;;;;;;5299965;26;20012;-51
2024/04/09 01:39:38;;;;;;;2.72;1.80;;;22.00;64.00;;;;;;5308169;26;20324;-54
2024/04/09 01:42:04;;;;;;;2.75;1.92;;;21.90;64.00;;;;;;5267916;26;20012;-54
2024/04/09 01:44:29;;;;;;;1.50;1.40;;;21.90;64.00;;;;;;5278378;26;20005;-52
2024/04/09 01:46:55;;;;;;;1.77;1.50;;;21.90;64.00;;;;;;5297728;26;20017;-53
2024/04/09 01:49:23;;;;;;;2.63;1.60;;;21.90;64.00;;;;;;5302715;26;20028;-47
2024/04/09 01:54:20;;;;;;;2.72;1.48;;;21.90;64.00;;;;;;5296797;21;20021;-71
2024/04/09 01:56:45;;;;;;;2.78;1.40;;;21.90;64.00;;;;;;5283494;26;19998;-71
2024/04/09 01:59:11;;;;;;;2.15;1.70;;;22.00;64.10;;;;;;5281331;26;20010;-71
2024/04/09 02:01:38;;;;;;;2.83;2.10;;;21.90;64.00;;;;;;5261002;26;20006;-69
2024/04/09 02:04:03;;;;;;;2.20;1.52;;;21.90;64.00;;;;;;5253552;26;20101;-71
2024/04/09 02:06:30;;;;;;;2.42;1.77;;;21.90;64.00;;;;;;5255613;26;20478;-71
2024/04/09 02:08:56;;;;;;;1.67;1.58;;;21.90;64.00;;;;;;5238368;26;20473;-72
2024/04/09 02:11:26;;;;;;;1.95;1.73;;;21.90;64.00;;;;;;5269029;26;20017;-70
2024/04/09 02:13:53;;;;;;;1.20;1.10;;;21.90;64.10;;;;;;5273412;26;20010;-71
2024/04/09 02:16:21;;;;;;;1.85;1.45;;;21.90;64.00;;;;;;5302483;26;20050;-71
2024/04/09 02:18:47;;;;;;;2.55;1.77;;;21.90;64.00;;;;;;5275526;26;19999;-70
2024/04/09 02:21:14;;;;;;;2.42;1.60;;;21.90;64.10;;;;;;5288051;26;20073;-71
2024/04/09 02:23:39;;;;;;;2.30;2.10;;;21.90;64.00;;;;;;5271429;26;19998;-70
2024/04/09 02:26:05;;;;;;;2.20;1.70;;;21.90;64.10;;;;;;5282754;26;20005;-71
2024/04/09 02:28:31;;;;;;;2.10;1.80;;;21.90;64.70;;;;;;5248627;26;20466;-72
2024/04/09 02:30:57;;;;;;;1.65;1.50;;;21.90;64.10;;;;;;5278595;26;19998;-73
2024/04/09 02:33:23;;;;;;;1.73;1.52;;;21.90;64.10;;;;;;5298323;26;20003;-72
2024/04/09 02:35:58;;;;;;;1.88;1.70;;;21.90;64.10;;;;;;5275659;26;20373;-72
2024/04/09 02:38:25;;;;;;;1.55;1.45;;;21.90;64.10;;;;;;5276283;26;20037;-71
2024/04/09 02:40:50;;;;;;;1.65;1.52;;;21.90;64.10;;;;;;5257548;26;20037;-72
2024/04/09 02:43:16;;;;;;;2.33;1.80;;;21.90;64.10;;;;;;5279933;26;20005;-71
2024/04/09 02:45:42;;;;;;;1.90;1.70;;;21.90;64.10;;;;;;5282111;26;20018;-71
2024/04/09 02:48:07;;;;;;;1.98;1.80;;;21.90;64.10;;;;;;5291791;26;20380;-72
2024/04/09 02:50:33;;;;;;;1.95;1.77;;;21.90;64.10;;;;;;5282415;26;20054;-71
2024/04/09 02:52:58;;;;;;;2.60;1.90;;;21.90;64.10;;;;;;5286365;26;20080;-72
2024/04/09 02:55:24;;;;;;;2.28;1.50;;;21.90;64.10;;;;;;5280988;26;20354;-71
2024/04/09 02:57:49;;;;;;;1.45;1.33;;;21.90;64.10;;;;;;5278878;26;20006;-72
2024/04/09 03:00:19;;;;;;;3.63;1.60;;;21.90;64.10;;;;;;5271199;26;19997;-72
2024/04/09 03:02:52;;;;;;;1.85;1.65;;;21.90;64.10;;;;;;5235863;26;20404;-72
2024/04/09 03:05:28;;;;;;;1.90;1.70;;;21.90;64.10;;;;;;5267906;26;20422;-72
2024/04/09 03:07:55;;;;;;;1.73;1.63;;;21.90;64.10;;;;;;5269236;26;20003;-72
2024/04/09 03:10:21;;;;;;;1.50;1.38;;;21.90;64.10;;;;;;5244160;26;20017;-71
2024/04/09 03:12:46;;;;;;;2.08;1.88;;;21.90;64.10;;;;;;5261891;26;20535;-71
2024/04/09 03:15:12;;;;;;;1.98;1.58;;;21.90;64.10;;;;;;5275944;26;20030;-71
2024/04/09 03:17:41;;;;;;;1.92;1.67;;;21.90;64.10;;;;;;5271593;26;20006;-71
2024/04/09 03:20:10;;;;;;;1.80;1.70;;;21.90;64.10;;;;;;5274747;26;20012;-72
2024/04/09 03:22:38;;;;;;;1.63;1.40;;;21.90;64.10;;;;;;5273004;26;20006;-71
2024/04/09 03:25:05;;;;;;;2.05;1.60;;;21.90;64.10;;;;;;5281998;26;20259;-72
2024/04/09 03:27:35;;;;;;;1.70;1.60;;;21.90;64.10;;;;;;5278549;26;20364;-71
2024/04/09 03:30:00;;;;;;;1.75;1.50;;;21.90;64.10;;;;;;5287264;26;20081;-72
2024/04/09 03:32:26;;;;;;;1.83;1.70;;;21.90;64.10;;;;;;5237845;27;20018;-73
2024/04/09 03:34:52;;;;;;;1.40;1.30;;;21.90;64.10;;;;;;5271496;26;20046;-73
2024/04/09 03:37:18;;;;;;;2.13;1.92;;;21.90;64.10;;;;;;5246265;26;20457;-72
2024/04/09 03:39:43;;;;;;;1.98;1.77;;;21.90;64.00;;;;;;5279314;26;20397;-71
2024/04/09 03:42:09;;;;;;;1.90;1.70;;;21.90;64.10;;;;;;5284000;26;20097;-71
2024/04/09 03:44:34;;;;;;;3.13;2.20;;;21.90;64.00;;;;;;5275204;26;20412;-72
2024/04/09 03:47:03;;;;;;;2.20;1.98;;;21.90;64.00;;;;;;5311550;26;20002;-72
2024/04/09 03:49:30;;;;;;;2.20;1.95;;;21.90;64.00;;;;;;5303994;26;20017;-71
2024/04/09 03:51:55;;;;;;;2.53;1.67;;;21.90;64.00;;;;;;5274333;26;20014;-72
2024/04/09 03:54:21;;;;;;;2.40;2.15;;;21.90;64.00;;;;;;5280993;26;20047;-72
2024/04/09 03:56:46;;;;;;;2.13;1.95;;;21.90;64.00;;;;;;5304064;26;20016;-71
2024/04/09 03:59:12;;;;;;;1.77;1.50;;;21.90;64.00;;;;;;5278217;26;20003;-71
2024/04/09 04:01:37;;;;;;;2.42;1.83;;;21.90;64.00;;;;;;5281958;26;20025;-71
2024/04/09 04:04:03;;;;;;;2.08;1.88;;;21.90;64.00;;;;;;5278727;26;20017;-72
2024/04/09 04:06:28;;;;;;;2.20;2.00;;;21.90;64.00;;;;;;5280422;26;20876;-72
2024/04/09 04:08:54;;;;;;;2.20;1.67;;;21.90;64.10;;;;;;5279789;26;20516;-72
2024/04/09 04:11:19;;;;;;;1.85;1.75;;;21.90;64.10;;;;;;5307186;26;24330;-72
2024/04/09 04:13:45;;;;;;;2.55;2.00;;;21.90;64.10;;;;;;5260492;26;20002;-71
2024/04/09 04:16:15;;;;;;;3.25;1.92;;;21.90;64.10;;;;;;5284262;26;20006;-69
2024/04/09 04:18:45;;;;;;;1.60;1.50;;;21.90;64.10;;;;;;5279890;26;20010;-71
2024/04/09 04:21:13;;;;;;;2.40;2.20;;;21.90;64.10;;;;;;5233500;26;20016;-71
2024/04/09 04:23:40;;;;;;;2.22;1.75;;;21.90;64.10;;;;;;5273369;26;20357;-71
2024/04/09 04:26:11;;;;;;;1.95;1.70;;;21.90;64.10;;;;;;5280316;26;20457;-71
2024/04/09 04:28:39;;;;;;;2.70;1.88;;;21.90;64.10;;;;;;5265600;26;20054;-70
2024/04/09 04:31:08;;;;;;;2.17;2.00;;;21.90;64.10;;;;;;5289490;26;20005;-71
2024/04/09 04:33:38;;;;;;;2.20;2.00;;;21.90;64.10;;;;;;5292041;26;20002;-71
2024/04/09 04:36:05;;;;;;;1.73;1.50;;;21.90;64.10;;;;;;5300927;26;20054;-71
2024/04/09 04:38:31;;;;;;;2.13;1.92;;;21.90;64.10;;;;;;5275461;26;20461;-71
2024/04/09 04:40:56;;;;;;;2.15;1.98;;;21.90;64.10;;;;;;5269723;26;20019;-71
2024/04/09 04:43:23;;;;;;;2.35;1.88;;;21.80;64.00;;;;;;5287378;26;20020;-70
2024/04/09 04:45:49;;;;;;;2.20;1.60;;;21.90;64.10;;;;;;5266131;26;20397;-71
2024/04/09 04:48:16;;;;;;;1.77;1.55;;;21.90;64.10;;;;;;5262123;26;20156;-71
2024/04/09 04:50:43;;;;;;;1.98;1.88;;;21.90;64.10;;;;;;5246087;26;20002;-71
2024/04/09 04:53:08;;;;;;;1.88;1.75;;;21.90;64.00;;;;;;5246333;26;20119;-71
2024/04/09 04:55:34;;;;;;;2.03;1.83;;;21.80;64.00;;;;;;5272073;26;20013;-71
2024/04/09 04:58:00;;;;;;;2.25;1.50;;;21.90;64.00;;;;;;5258201;26;20006;-70
2024/04/09 05:00:26;;;;;;;1.67;1.58;;;21.90;64.00;;;;;;5262041;26;20002;-72
2024/04/09 05:02:52;;;;;;;2.28;1.85;;;21.90;64.00;;;;;;5259503;26;20002;-72
2024/04/09 05:05:17;;;;;;;3.53;1.75;;;21.90;64.00;;;;;;5262970;26;20002;-71
2024/04/09 05:07:43;;;;;;;2.45;1.90;;;21.90;64.00;;;;;;5306061;26;20003;-67
2024/04/09 05:10:12;;;;;;;2.75;2.17;;;21.90;64.00;;;;;;5246781;26;20530;-69
2024/04/09 05:12:39;;;;;;;1.77;1.67;;;21.90;64.00;;;;;;5259221;26;20388;-69
2024/04/09 05:15:06;;;;;;;1.98;1.77;;;21.90;63.90;;;;;;5282459;26;20010;-68
2024/04/09 05:17:32;;;;;;;1.90;1.75;;;21.90;63.90;;;;;;5264178;26;20002;-70
2024/04/09 05:19:57;;;;;;;1.95;1.77;;;21.90;64.00;;;;;;5256512;26;20013;-68
2024/04/09 05:22:24;;;;;;;1.40;1.30;;;21.90;63.90;;;;;;5256387;26;20065;-69
2024/04/09 05:24:51;;;;;;;1.50;1.40;;;21.90;63.90;;;;;;5259370;26;20014;-71
2024/04/09 05:27:17;;;;;;;2.67;1.70;;;21.90;63.90;;;;;;5256591;26;20002;-70
2024/04/09 05:29:43;;;;;;;1.73;1.63;;;21.90;63.90;;;;;;5254369;26;20471;-69
2024/04/09 05:32:09;;;;;;;2.20;2.00;;;21.90;63.90;;;;;;5265374;26;20029;-71
2024/04/09 05:34:34;;;;;;;2.60;1.90;;;21.90;63.90;;;;;;5278759;26;20005;-72
2024/04/09 05:37:00;;;;;;;2.72;1.80;;;21.90;63.90;;;;;;5261088;26;20002;-70
2024/04/09 05:39:25;;;;;;;2.78;2.35;;;21.90;63.90;;;;;;5271142;26;20006;-73
2024/04/09 05:41:51;;;;;;;3.30;1.73;;;21.90;63.80;;;;;;5281651;26;20007;-71
2024/04/09 05:44:17;;;;;;;1.83;1.73;;;21.90;63.80;;;;;;5302625;26;20009;-73
2024/04/09 05:46:42;;;;;;;2.15;1.80;;;22.00;63.90;;;;;;5302823;26;20002;-70
2024/04/09 05:49:08;;;;;;;2.10;1.90;;;21.90;63.80;;;;;;5258600;26;20020;-70
2024/04/09 05:51:34;;;;;;;3.60;1.75;;;21.90;63.80;;;;;;5309337;26;19998;-70
2024/04/09 05:53:59;;;;;;;1.58;1.48;;;21.90;63.90;;;;;;5252995;26;20432;-70
2024/04/09 05:56:25;;;;;;;2.88;2.10;;;21.90;63.90;;;;;;5290195;26;20013;-68
2024/04/09 05:58:51;;;;;;;2.28;1.80;;;22.00;64.00;;;;;;5277456;26;20020;-71
2024/04/09 06:01:16;;;;;;;2.20;1.95;;;22.00;63.90;;;;;;5284581;26;20016;-70
2024/04/09 06:03:42;;;;;;;2.00;1.85;;;22.00;63.90;;;;;;5279730;26;20105;-69
2024/04/09 06:06:08;;;;;;;2.10;1.90;;;22.00;63.70;;;;;;5273733;26;20013;-72
2024/04/09 06:08:33;;;;;;;3.38;1.70;;;22.00;63.80;;;;;;5312861;26;20009;-70
2024/04/09 06:10:59;;;;;;;3.20;1.83;;;22.00;63.70;;;;;;5289006;26;20465;-71
2024/04/09 06:13:24;;;;;;;2.67;1.80;;;22.00;63.60;;;;;;5291453;26;20080;-71
2024/04/09 06:15:50;;;;;;;3.00;1.77;;;22.00;63.60;;;;;;5296601;26;20002;-71
2024/04/09 06:18:15;;;;;;;2.08;1.65;;;22.00;64.20;;;;;;5287171;26;20006;-71
2024/04/09 06:20:41;;;;;;;2.92;2.17;;;22.00;63.50;;;;;;5282768;26;20021;-69
2024/04/09 06:23:06;;;;;;;1.98;1.67;;;22.10;63.60;;;;;;5283876;26;20012;-70
2024/04/09 06:25:32;;;;;;;2.65;1.95;;;22.00;63.50;;;;;;5291110;26;20431;-67
2024/04/09 06:27:58;;;;;;;1.95;1.70;;;22.00;63.50;;;;;;5274411;26;20014;-70
2024/04/09 06:30:23;;;;;;;5.07;2.35;;;22.10;63.50;;;;;;5284958;26;20002;-68
2024/04/09 06:32:48;;;;;;;2.72;1.95;;;22.00;63.40;;;;;;5277242;26;20021;-70
2024/04/09 06:35:14;;;;;;;3.90;2.25;;;22.00;63.50;;;;;;5285811;26;20018;-69
2024/04/09 06:37:40;;;;;;;2.22;1.70;;;22.00;63.50;;;;;;5257336;26;20449;-70
2024/04/09 06:40:05;;;;;;;2.92;2.10;;;22.10;63.60;;;;;;5287867;26;20021;-70
2024/04/09 06:42:32;;;;;;;2.65;1.73;;;22.10;63.60;;;;;;5284799;26;20006;-68
2024/04/09 06:44:57;;;;;;;3.03;2.42;;;22.10;63.60;;;;;;5282713;26;20014;-69
2024/04/09 06:47:23;;;;;;;2.88;1.80;;;22.10;63.50;;;;;;5276713;26;20001;-69
2024/04/09 06:49:48;;;;;;;2.40;1.83;;;22.10;63.50;;;;;;5275700;26;20002;-69
2024/04/09 06:52:14;;;;;;;3.42;2.10;;;22.10;63.60;;;;;;5288873;26;20005;-69
2024/04/09 06:54:40;;;;;;;3.95;2.05;;;22.10;63.60;;;;;;5286802;26;20020;-67
2024/04/09 06:57:05;;;;;;;3.63;2.30;;;22.10;63.60;;;;;;5290934;26;20525;-68
2024/04/09 06:59:32;;;;;;;2.72;1.75;;;22.10;63.60;;;;;;5290234;26;20005;-67
2024/04/09 07:01:57;;;;;;;4.72;1.83;;;22.10;63.60;;;;;;5282015;26;20010;-68
2024/04/09 07:04:23;;;;;;;3.30;2.28;;;22.10;63.80;;;;;;5284984;26;20091;-68
2024/04/09 07:06:49;;;;;;;3.25;1.90;;;22.10;63.70;;;;;;5252167;26;20014;-68
2024/04/09 07:09:18;;;;;;;2.63;1.98;;;22.10;63.70;;;;;;5230254;26;20034;-68
2024/04/09 07:11:45;;;;;;;3.60;2.38;;;22.10;63.60;;;;;;5233305;26;20003;-68
2024/04/09 07:14:13;;;;;;;2.50;2.03;;;22.10;63.60;;;;;;5231538;26;20350;-68
2024/04/09 07:16:39;;;;;;;3.00;2.08;;;22.10;63.70;;;;;;5237167;26;20010;-67
2024/04/09 07:19:05;;;;;;;3.20;2.20;;;22.10;63.60;;;;;;5264151;26;20016;-67
2024/04/09 07:21:30;;;;;;;3.15;2.40;;;22.10;63.60;;;;;;5236747;26;20350;-67
2024/04/09 07:23:56;;;;;;;4.47;2.35;;;22.10;63.60;;;;;;5258172;26;20439;-69
2024/04/09 07:26:21;;;;;;;3.28;2.10;;;22.10;63.60;;;;;;5252245;26;20411;-68
2024/04/09 07:28:47;;;;;;;4.65;2.30;;;22.10;63.60;;;;;;5238138;26;20041;-68
2024/04/09 07:31:14;;;;;;;3.55;1.92;;;22.10;63.60;;;;;;5285034;26;19998;-68
2024/04/09 07:33:39;;;;;;;2.30;1.83;;;22.10;63.60;;;;;;5272337;26;20006;-68
2024/04/09 07:36:06;;;;;;;3.15;2.20;;;22.10;63.60;;;;;;5279291;26;20002;-69
2024/04/09 07:38:31;;;;;;;6.20;2.47;;;22.10;63.60;;;;;;5274324;26;19997;-68
2024/04/09 07:40:57;;;;;;;2.92;1.95;;;22.10;63.60;;;;;;5274944;26;20002;-69
2024/04/09 07:43:22;;;;;;;3.45;2.15;;;22.10;63.60;;;;;;5263620;26;19997;-69
2024/04/09 07:45:54;;;;;;;4.40;2.53;;;22.10;63.60;;;;;;5237566;26;20009;-68
2024/04/09 07:48:20;;;;;;;4.03;2.20;;;22.10;63.60;;;;;;5288817;26;20005;-68
2024/04/09 07:50:46;;;;;;;5.80;2.30;;;22.20;63.60;;;;;;5282752;26;20441;-68
2024/04/09 07:53:12;;;;;;;3.95;2.30;;;22.20;63.60;;;;;;5285586;26;20014;-68
2024/04/09 07:55:37;;;;;;;4.45;2.38;;;22.10;63.60;;;;;;5282250;26;20009;-68
2024/04/09 07:58:03;;;;;;;3.40;2.38;;;22.20;63.60;;;;;;5277520;26;20024;-69
2024/04/09 08:00:29;;;;;;;4.03;2.00;;;22.10;63.60;;;;;;5281154;26;20349;-69
2024/04/09 08:02:55;;;;;;;3.78;2.30;;;22.20;63.60;;;;;;5263205;26;20063;-69
2024/04/09 08:05:22;;;;;;;5.43;2.75;;;22.10;63.50;;;;;;5248645;26;20009;-68
2024/04/09 08:07:48;;;;;;;4.25;1.80;;;22.10;63.50;;;;;;5256109;26;20026;-68
2024/04/09 08:10:18;;;;;;;3.22;2.17;;;22.20;63.60;;;;;;5245335;26;20050;-67
2024/04/09 08:12:48;;;;;;;6.45;2.70;;;22.20;63.60;;;;;;5272554;26;19998;-68
2024/04/09 08:15:13;;;;;;;3.25;1.98;;;22.10;63.50;;;;;;5266573;26;20199;-68
2024/04/09 08:17:39;;;;;;;3.05;2.30;;;22.20;63.50;;;;;;5280300;26;20012;-67
2024/04/09 08:20:10;;;;;;;2.85;2.05;;;22.20;63.60;;;;;;5290351;26;20038;-68
2024/04/09 08:22:39;;;;;;;2.25;1.85;;;22.20;63.50;;;;;;5250140;26;20020;-67
2024/04/09 08:25:08;;;;;;;6.00;2.13;;;22.20;63.60;;;;;;5280605;26;19998;-68
2024/04/09 08:27:38;;;;;;;4.07;2.30;;;22.20;63.50;;;;;;5284080;26;20029;-68
2024/04/09 08:30:12;;;;;;;4.10;2.03;;;22.20;63.60;;;;;;5253080;26;20021;-68
2024/04/09 08:32:39;;;;;;;4.38;2.30;;;22.20;63.60;;;;;;5278406;26;20468;-68
2024/04/09 08:35:05;;;;;;;5.03;2.47;;;22.20;63.50;;;;;;5286621;26;20079;-68
2024/04/09 08:37:31;;;;;;;6.40;2.03;;;22.20;63.50;;;;;;5286523;26;20014;-67
2024/04/09 08:39:57;;;;;;;4.03;2.45;;;22.20;63.50;;;;;;5287418;26;20005;-69
2024/04/09 08:42:29;;;;;;;8.30;2.40;;;22.20;63.50;;;;;;5280223;26;20002;-68
2024/04/09 08:44:57;;;;;;;4.20;2.85;;;22.20;63.50;;;;;;5283066;26;20017;-68
2024/04/09 08:47:24;;;;;;;4.20;2.30;;;22.20;63.50;;;;;;5247508;27;20077;-68
2024/04/09 08:49:50;;;;;;;4.32;2.35;;;22.20;63.50;;;;;;5281867;26;20001;-67
2024/04/09 08:52:20;;;;;;;4.28;1.98;;;22.20;63.50;;;;;;5283481;26;20042;-67
2024/04/09 08:54:47;;;;;;;3.97;2.03;;;22.20;63.50;;;;;;5271615;26;20020;-68
2024/04/09 08:57:12;;;;;;;4.28;2.50;;;22.20;63.50;;;;;;5282392;26;20011;-69
2024/04/09 08:59:38;;;;;;;4.78;2.42;;;22.20;63.50;;;;;;5307218;26;20001;-68
2024/04/09 09:02:14;;;;;;;3.75;2.45;;;22.20;63.50;;;;;;5281691;26;20335;-68
2024/04/09 09:04:41;;;;;;;4.45;2.13;;;22.20;63.40;;;;;;5233734;26;20015;-68
2024/04/09 09:07:17;;;;;;;3.58;2.30;;;22.20;63.50;;;;;;5253638;26;20046;-68
2024/04/09 09:09:44;;;;;;;6.65;2.47;;;22.20;63.40;;;;;;5286808;26;20002;-68
2024/04/09 09:12:11;;;;;;;6.20;2.47;;;22.20;63.40;;;;;;5290756;26;20079;-68
2024/04/09 09:14:37;;;;;;;6.60;3.03;;;22.20;63.40;;;;;;5285524;26;20002;-68
2024/04/09 09:17:11;;;;;;;6.32;2.65;;;22.20;63.40;;;;;;5282786;26;20622;-68
2024/04/09 09:19:37;;;;;;;3.72;2.13;;;22.20;63.30;;;;;;5288072;26;20343;-68
2024/04/09 09:22:09;;;;;;;4.75;2.75;;;22.20;63.20;;;;;;5280945;26;20006;-68
2024/04/09 09:24:35;;;;;;;4.10;2.40;;;22.20;63.20;;;;;;5277468;26;20464;-68
2024/04/09 09:27:02;;;;;;;6.03;2.40;;;22.20;63.20;;;;;;5276879;26;20084;-68
2024/04/09 09:29:28;;;;;;;3.72;2.20;;;22.20;63.30;;;;;;5235916;26;20070;-68
2024/04/09 09:31:54;;;;;;;4.68;2.60;;;22.30;63.40;;;;;;5270046;26;20025;-68
2024/04/09 09:34:30;;;;;;;4.50;2.38;;;22.20;63.40;;;;;;5257077;26;20080;-68
2024/04/09 09:36:59;;;;;;;5.03;2.40;;;22.20;63.30;;;;;;5256632;26;20002;-68
2024/04/09 09:39:27;;;;;;;6.80;2.65;;;22.30;63.30;;;;;;5259741;26;20407;-68
2024/04/09 09:41:56;;;;;;;6.45;2.58;;;22.30;63.30;;;;;;5250111;26;20542;-68
2024/04/09 09:44:23;;;;;;;4.18;2.28;;;22.20;63.10;;;;;;5256926;26;20592;-68
2024/04/09 09:46:48;;;;;;;5.57;2.55;;;22.30;63.20;;;;;;5254191;26;20076;-68
2024/04/09 09:49:16;;;;;;;5.35;2.38;;;22.20;63.10;;;;;;5260103;26;20012;-69
2024/04/09 09:51:42;;;;;;;4.35;2.30;;;22.30;63.20;;;;;;5264195;26;20014;-68
2024/04/09 09:54:08;;;;;;;7.40;2.65;;;22.30;63.20;;;;;;5264264;26;20330;-68
2024/04/09 09:56:35;;;;;;;4.43;2.42;;;22.30;63.20;;;;;;5259415;26;20432;-68
2024/04/09 09:59:03;;;;;;;6.20;2.20;;;22.30;63.20;;;;;;5272307;26;20013;-68
2024/04/09 10:01:29;;;;;;;6.25;2.45;;;22.30;63.20;;;;;;5265196;26;20034;-68
2024/04/09 10:03:55;;;;;;;4.20;2.28;;;22.30;63.20;;;;;;5259792;26;20460;-69
2024/04/09 10:06:20;;;;;;;9.52;3.60;;;22.30;63.10;;;;;;5276031;26;20003;-67
2024/04/09 10:08:47;;;;;;;5.57;2.17;;;22.30;63.20;;;;;;5260072;26;20030;-68
2024/04/09 10:11:13;;;;;;;6.40;2.65;;;22.30;63.10;;;;;;5254331;26;20014;-68
2024/04/09 10:13:48;;;;;;;6.35;2.63;;;22.30;63.10;;;;;;5252122;26;20006;-68
2024/04/09 10:16:18;;;;;;;6.25;2.67;;;22.30;63.10;;;;;;5252504;26;20002;-68
2024/04/09 10:18:46;;;;;;;5.50;2.33;;;22.30;63.00;;;;;;5256155;26;20213;-68
2024/04/09 10:21:14;;;;;;;6.93;2.67;;;22.30;63.00;;;;;;5239324;26;20037;-69
2024/04/09 10:23:40;;;;;;;7.65;2.83;;;22.30;63.00;;;;;;5263036;26;19999;-68
2024/04/09 10:26:08;;;;;;;7.20;2.58;;;22.30;63.00;;;;;;5270247;26;20019;-68
2024/04/09 10:28:35;;;;;;;10.00;2.97;;;22.30;62.90;;;;;;5260627;26;20469;-69
2024/04/09 10:31:06;;;;;;;8.90;2.72;;;22.30;62.80;;;;;;5263584;26;20458;-68
2024/04/09 10:33:36;;;;;;;5.80;2.28;;;22.30;63.00;;;;;;5252569;26;20568;-68
2024/04/09 10:36:07;;;;;;;6.88;2.80;;;22.30;62.90;;;;;;5278520;26;20002;-68
2024/04/09 10:38:33;;;;;;;7.63;2.90;;;22.30;62.80;;;;;;5274596;26;20022;-69
2024/04/09 10:41:02;;;;;;;4.32;2.50;;;22.30;62.90;;;;;;5267099;26;20002;-71
2024/04/09 10:43:29;;;;;;;7.65;2.88;;;22.30;62.90;;;;;;5270366;26;20008;-69
2024/04/09 10:45:56;;;;;;;6.53;2.80;;;22.30;62.90;;;;;;5284479;26;20024;-69
2024/04/09 10:48:22;;;;;;;6.95;2.92;;;22.30;62.90;;;;;;5286067;26;20009;-69
2024/04/09 10:50:48;;;;;;;5.18;2.50;;;22.30;63.00;;;;;;5279861;26;20014;-68
2024/04/09 10:53:15;;;;;;;5.65;3.17;;;22.30;62.90;;;;;;5269366;26;20021;-67
2024/04/09 10:55:40;;;;;;;4.30;2.33;;;22.30;63.00;;;;;;5256828;26;20002;-68
2024/04/09 10:58:06;;;;;;;5.75;2.67;;;22.30;63.00;;;;;;5281260;26;20480;-68
2024/04/09 11:00:31;;;;;;;6.57;2.60;;;22.30;62.80;;;;;;5287802;26;20041;-68
2024/04/09 11:02:57;;;;;;;10.63;3.05;;;22.40;62.90;;;;;;5284851;26;20034;-68
2024/04/09 11:05:23;;;;;;;6.95;3.30;;;22.30;63.00;;;;;;5287784;26;20017;-69
2024/04/09 11:07:50;;;;;;;4.57;2.58;;;22.30;63.00;;;;;;5283420;26;20033;-69
2024/04/09 11:10:22;;;;;;;5.55;2.83;;;22.40;63.10;;;;;;5273157;26;20006;-68
2024/04/09 11:12:51;;;;;;;6.32;2.78;;;22.40;63.00;;;;;;5279052;26;20006;-68
2024/04/09 11:15:17;;;;;;;5.35;2.25;;;22.30;63.00;;;;;;5248110;26;20158;-67
2024/04/09 11:17:43;;;;;;;9.18;2.72;;;22.40;63.00;;;;;;5280761;26;20028;-68
2024/04/09 11:20:11;;;;;;;7.65;3.55;;;22.40;63.00;;;;;;5281879;26;20002;-68
2024/04/09 11:22:44;;;;;;;6.70;2.63;;;22.40;63.00;;;;;;5278550;26;20144;-68
2024/04/09 11:25:13;;;;;;;6.32;2.65;;;22.30;62.90;;;;;;5281263;26;20006;-68
2024/04/09 11:27:43;;;;;;;4.60;2.72;;;22.40;63.10;;;;;;5266431;26;20073;-69
2024/04/09 11:30:11;;;;;;;6.93;3.10;;;22.40;63.10;;;;;;5280593;26;20017;-68
2024/04/09 11:32:37;;;;;;;5.60;3.00;;;22.30;63.00;;;;;;5251258;26;20017;-68
2024/04/09 11:35:03;;;;;;;7.40;2.67;;;22.30;63.00;;;;;;5278383;26;20010;-68
2024/04/09 11:37:29;;;;;;;8.75;2.78;;;22.40;63.10;;;;;;5285082;26;20001;-68
2024/04/09 11:39:54;;;;;;;10.73;2.90;;;22.40;63.00;;;;;;5281598;26;20382;-67
2024/04/09 11:42:20;;;;;;;7.07;2.88;;;22.40;63.10;;;;;;5286582;26;20006;-68
2024/04/09 11:44:45;;;;;;;5.63;2.50;;;22.40;63.10;;;;;;5279839;26;19998;-68
2024/04/09 11:47:11;;;;;;;7.13;3.45;;;22.40;63.10;;;;;;5310177;26;20057;-67
2024/04/09 11:49:37;;;;;;;6.10;2.80;;;22.30;63.10;;;;;;5282570;26;20028;-68
2024/04/09 11:52:03;;;;;;;5.88;2.40;;;22.30;63.20;;;;;;5281281;26;20009;-67
2024/04/09 11:54:29;;;;;;;6.25;3.10;;;22.40;63.10;;;;;;5282967;26;20016;-68
2024/04/09 11:56:54;;;;;;;8.05;3.15;;;22.40;63.20;;;;;;5277926;26;20005;-69
2024/04/09 11:59:19;;;;;;;7.65;2.65;;;22.40;63.20;;;;;;5286870;26;20004;-68
2024/04/09 12:01:45;;;;;;;6.35;2.72;;;22.40;63.10;;;;;;5283232;26;20026;-68
2024/04/09 12:04:11;;;;;;;8.93;3.10;;;22.40;63.20;;;;;;5275881;26;20045;-68
2024/04/09 12:06:37;;;;;;;8.00;3.15;;;22.40;63.20;;;;;;5299466;26;20337;-69
2024/04/09 12:09:03;;;;;;;6.15;2.80;;;22.40;63.10;;;;;;5278841;26;19998;-68
2024/04/09 12:11:28;;;;;;;7.03;2.95;;;22.40;63.10;;;;;;5279872;26;19997;-68
2024/04/09 12:13:54;;;;;;;8.13;3.17;;;22.40;63.10;;;;;;5279414;26;20005;-68
2024/04/09 12:16:19;;;;;;;7.35;2.95;;;22.40;63.20;;;;;;5284235;26;20626;-68
2024/04/09 12:18:45;;;;;;;6.45;2.63;;;22.40;63.10;;;;;;5280052;26;20138;-69
2024/04/09 12:21:11;;;;;;;5.38;2.85;;;22.40;63.80;;;;;;5274110;26;20001;-69
2024/04/09 12:23:36;;;;;;;8.35;2.40;;;22.40;63.20;;;;;;5263977;26;20888;-68
2024/04/09 12:26:02;;;;;;;5.53;2.67;;;22.40;63.30;;;;;;5256291;26;20037;-68
2024/04/09 12:28:27;;;;;;;6.22;2.75;;;22.40;63.30;;;;;;5260009;26;20734;-68
2024/04/09 12:30:53;;;;;;;7.93;2.97;;;22.40;63.30;;;;;;5251190;26;20105;-68
2024/04/09 12:33:20;;;;;;;4.78;2.60;;;22.40;63.40;;;;;;5254300;26;20072;-69
2024/04/09 12:35:45;;;;;;;4.70;2.25;;;22.40;63.40;;;;;;5257012;26;20482;-69
2024/04/09 12:38:11;;;;;;;4.80;2.45;;;22.40;63.40;;;;;;5255181;26;19998;-69
2024/04/09 12:40:36;;;;;;;4.75;2.05;;;22.40;63.40;;;;;;5257224;26;20013;-68
2024/04/09 12:43:04;;;;;;;6.38;2.90;;;22.40;63.40;;;;;;5268958;26;20010;-70
2024/04/09 12:45:29;;;;;;;7.65;2.55;;;22.40;63.40;;;;;;5266622;26;20445;-68